sensor_id;sensor_type;location;lat;lon;timestamp;pressure;altitude;pressure_sealevel;temperature;humidity
66396;BME280;53207;51.378;-1.342;2023-01-31T00:01:22;101371.30;;;18.57;33.88
66396;BME280;53207;51.378;-1.342;2023-01-31T00:03:52;101376.88;;;18.60;33.81
66396;BME280;53207;51.378;-1.342;2023-01-31T00:06:21;101367.70;;;18.59;33.81
66396;BME280;53207;51.378;-1.342;2023-01-31T00:08:50;101358.15;;;18.52;33.85
66396;BME280;53207;51.378;-1.342;2023-01-31T00:11:20;101352.37;;;18.50;33.86
66396;BME280;53207;51.378;-1.342;2023-01-31T00:13:48;101358.22;;;18.51;33.84
66396;BME280;53207;51.378;-1.342;2023-01-31T00:16:16;101356.45;;;18.49;33.84
66396;BME280;53207;51.378;-1.342;2023-01-31T00:18:45;101348.88;;;18.39;33.91
66396;BME280;53207;51.378;-1.342;2023-01-31T00:21:14;101344.73;;;18.38;33.92
66396;BME280;53207;51.378;-1.342;2023-01-31T00:23:42;101352.18;;;18.39;33.87
66396;BME280;53207;51.378;-1.342;2023-01-31T00:26:11;101349.49;;;18.48;34.04
66396;BME280;53207;51.378;-1.342;2023-01-31T00:28:39;101346.99;;;18.23;34.00
66396;BME280;53207;51.378;-1.342;2023-01-31T00:31:07;101338.04;;;18.12;34.10
66396;BME280;53207;51.378;-1.342;2023-01-31T00:33:36;101333.06;;;18.23;33.96
66396;BME280;53207;51.378;-1.342;2023-01-31T00:36:04;101330.51;;;18.16;34.01
66396;BME280;53207;51.378;-1.342;2023-01-31T00:38:32;101326.74;;;18.36;34.07
66396;BME280;53207;51.378;-1.342;2023-01-31T00:41:01;101321.47;;;18.31;34.10
66396;BME280;53207;51.378;-1.342;2023-01-31T00:43:29;101320.02;;;18.00;34.15
66396;BME280;53207;51.378;-1.342;2023-01-31T00:45:56;101314.99;;;18.08;34.02
66396;BME280;53207;51.378;-1.342;2023-01-31T00:48:23;101319.52;;;18.44;34.16
66396;BME280;53207;51.378;-1.342;2023-01-31T00:50:50;101325.71;;;18.40;34.17
66396;BME280;53207;51.378;-1.342;2023-01-31T00:53:18;101326.03;;;17.93;34.11
66396;BME280;53207;51.378;-1.342;2023-01-31T00:55:45;101317.36;;;17.87;34.17
66396;BME280;53207;51.378;-1.342;2023-01-31T00:58:12;101307.12;;;18.07;34.22
66396;BME280;53207;51.378;-1.342;2023-01-31T01:00:40;101308.72;;;17.73;34.28
66396;BME280;53207;51.378;-1.342;2023-01-31T01:03:07;101315.31;;;17.79;34.19
66396;BME280;53207;51.378;-1.342;2023-01-31T01:05:34;101320.00;;;17.75;34.21
66396;BME280;53207;51.378;-1.342;2023-01-31T01:08:02;101312.98;;;17.90;34.35
66396;BME280;53207;51.378;-1.342;2023-01-31T01:10:29;101307.61;;;17.67;34.28
66396;BME280;53207;51.378;-1.342;2023-01-31T01:12:56;101304.25;;;17.85;34.35
66396;BME280;53207;51.378;-1.342;2023-01-31T01:15:24;101306.51;;;17.61;34.31
66396;BME280;53207;51.378;-1.342;2023-01-31T01:17:51;101304.39;;;17.78;34.40
66396;BME280;53207;51.378;-1.342;2023-01-31T01:20:18;101303.16;;;17.79;34.37
66396;BME280;53207;51.378;-1.342;2023-01-31T01:22:45;101301.51;;;17.74;34.40
66396;BME280;53207;51.378;-1.342;2023-01-31T01:25:13;101298.02;;;17.73;34.38
66396;BME280;53207;51.378;-1.342;2023-01-31T01:27:40;101291.69;;;17.69;34.41
66396;BME280;53207;51.378;-1.342;2023-01-31T01:30:08;101289.65;;;17.38;34.44
66396;BME280;53207;51.378;-1.342;2023-01-31T01:32:36;101282.46;;;17.62;34.43
66396;BME280;53207;51.378;-1.342;2023-01-31T01:35:04;101285.58;;;17.66;34.37
66396;BME280;53207;51.378;-1.342;2023-01-31T01:37:32;101282.87;;;17.84;34.40
66396;BME280;53207;51.378;-1.342;2023-01-31T01:39:59;101283.39;;;17.55;34.46
66396;BME280;53207;51.378;-1.342;2023-01-31T01:42:29;101280.42;;;17.80;34.40
66396;BME280;53207;51.378;-1.342;2023-01-31T01:45:00;101280.45;;;17.74;34.45
66396;BME280;53207;51.378;-1.342;2023-01-31T01:47:37;101276.69;;;17.73;34.43
66396;BME280;53207;51.378;-1.342;2023-01-31T01:50:10;101271.81;;;17.19;34.48
66396;BME280;53207;51.378;-1.342;2023-01-31T01:52:41;101276.75;;;17.45;34.48
66396;BME280;53207;51.378;-1.342;2023-01-31T01:55:16;101276.56;;;17.46;34.42
66396;BME280;53207;51.378;-1.342;2023-01-31T01:57:48;101268.77;;;17.20;34.39
66396;BME280;53207;51.378;-1.342;2023-01-31T02:00:20;101271.46;;;17.44;34.41
66396;BME280;53207;51.378;-1.342;2023-01-31T02:02:51;101279.99;;;17.33;34.52
66396;BME280;53207;51.378;-1.342;2023-01-31T02:05:21;101275.07;;;17.55;34.51
66396;BME280;53207;51.378;-1.342;2023-01-31T02:07:50;101269.32;;;17.60;34.42
66396;BME280;53207;51.378;-1.342;2023-01-31T02:10:22;101268.19;;;17.36;34.41
66396;BME280;53207;51.378;-1.342;2023-01-31T02:12:50;101265.73;;;17.55;34.42
66396;BME280;53207;51.378;-1.342;2023-01-31T02:15:18;101265.51;;;17.23;34.54
66396;BME280;53207;51.378;-1.342;2023-01-31T02:17:46;101266.86;;;17.26;34.46
66396;BME280;53207;51.378;-1.342;2023-01-31T02:20:25;101263.87;;;17.43;34.52
66396;BME280;53207;51.378;-1.342;2023-01-31T02:23:21;101262.72;;;17.40;34.53
66396;BME280;53207;51.378;-1.342;2023-01-31T02:26:17;101260.97;;;17.42;34.48
66396;BME280;53207;51.378;-1.342;2023-01-31T02:29:08;101251.15;;;17.38;34.49
66396;BME280;53207;51.378;-1.342;2023-01-31T02:31:58;101253.73;;;16.87;34.48
66396;BME280;53207;51.378;-1.342;2023-01-31T02:34:36;101257.33;;;17.28;34.55
66396;BME280;53207;51.378;-1.342;2023-01-31T02:37:17;101259.82;;;17.30;34.50
66396;BME280;53207;51.378;-1.342;2023-01-31T02:39:55;101257.06;;;17.01;34.56
66396;BME280;53207;51.378;-1.342;2023-01-31T02:42:32;101253.95;;;17.24;34.50
66396;BME280;53207;51.378;-1.342;2023-01-31T02:45:06;101247.88;;;16.93;34.59
66396;BME280;53207;51.378;-1.342;2023-01-31T02:47:48;101239.89;;;17.20;34.52
66396;BME280;53207;51.378;-1.342;2023-01-31T02:50:24;101248.58;;;17.15;34.56
66396;BME280;53207;51.378;-1.342;2023-01-31T02:52:58;101252.03;;;16.93;34.51
66396;BME280;53207;51.378;-1.342;2023-01-31T02:55:34;101250.67;;;17.18;34.45
66396;BME280;53207;51.378;-1.342;2023-01-31T02:58:06;101252.96;;;17.14;34.46
66396;BME280;53207;51.378;-1.342;2023-01-31T03:00:38;101250.24;;;17.14;34.45
66396;BME280;53207;51.378;-1.342;2023-01-31T03:03:11;101249.66;;;17.15;34.40
66396;BME280;53207;51.378;-1.342;2023-01-31T03:05:43;101246.58;;;16.94;34.38
66396;BME280;53207;51.378;-1.342;2023-01-31T03:08:11;101247.08;;;17.09;34.42
66396;BME280;53207;51.378;-1.342;2023-01-31T03:10:50;101238.07;;;17.12;34.38
66396;BME280;53207;51.378;-1.342;2023-01-31T03:13:32;101235.61;;;17.03;34.47
66396;BME280;53207;51.378;-1.342;2023-01-31T03:16:06;101227.14;;;17.05;34.41
66396;BME280;53207;51.378;-1.342;2023-01-31T03:18:50;101232.85;;;17.01;34.42
66396;BME280;53207;51.378;-1.342;2023-01-31T03:21:24;101223.56;;;16.96;34.45
66396;BME280;53207;51.378;-1.342;2023-01-31T03:23:54;101231.63;;;17.00;34.39
66396;BME280;53207;51.378;-1.342;2023-01-31T03:26:23;101219.04;;;16.95;34.43
66396;BME280;53207;51.378;-1.342;2023-01-31T03:28:52;101214.95;;;16.87;34.48
66396;BME280;53207;51.378;-1.342;2023-01-31T03:31:23;101210.05;;;16.68;34.45
66396;BME280;53207;51.378;-1.342;2023-01-31T03:33:54;101205.90;;;16.84;34.50
66396;BME280;53207;51.378;-1.342;2023-01-31T03:36:29;101208.15;;;16.82;34.49
66396;BME280;53207;51.378;-1.342;2023-01-31T03:39:09;101206.11;;;16.83;34.48
66396;BME280;53207;51.378;-1.342;2023-01-31T03:41:46;101197.48;;;16.79;34.50
66396;BME280;53207;51.378;-1.342;2023-01-31T03:44:19;101197.44;;;16.73;34.56
66396;BME280;53207;51.378;-1.342;2023-01-31T03:46:51;101200.78;;;16.81;34.45
66396;BME280;53207;51.378;-1.342;2023-01-31T03:49:24;101192.97;;;16.74;34.55
66396;BME280;53207;51.378;-1.342;2023-01-31T03:51:57;101193.76;;;16.75;34.49
66396;BME280;53207;51.378;-1.342;2023-01-31T03:54:31;101206.17;;;16.70;34.52
66396;BME280;53207;51.378;-1.342;2023-01-31T03:57:01;101200.74;;;16.71;34.49
66396;BME280;53207;51.378;-1.342;2023-01-31T03:59:35;101198.79;;;16.66;34.53
66396;BME280;53207;51.378;-1.342;2023-01-31T04:02:06;101193.99;;;16.67;34.49
66396;BME280;53207;51.378;-1.342;2023-01-31T04:04:39;101189.73;;;17.02;34.36
66396;BME280;53207;51.378;-1.342;2023-01-31T04:07:09;101191.35;;;17.00;34.37
66396;BME280;53207;51.378;-1.342;2023-01-31T04:09:36;101193.40;;;16.66;34.43
66396;BME280;53207;51.378;-1.342;2023-01-31T04:12:04;101193.09;;;16.68;34.40
66396;BME280;53207;51.378;-1.342;2023-01-31T04:14:31;101193.27;;;16.94;34.39
66396;BME280;53207;51.378;-1.342;2023-01-31T04:16:59;101191.70;;;16.84;34.49
66396;BME280;53207;51.378;-1.342;2023-01-31T04:19:26;101196.87;;;16.61;34.41
66396;BME280;53207;51.378;-1.342;2023-01-31T04:21:53;101194.53;;;16.62;34.38
66396;BME280;53207;51.378;-1.342;2023-01-31T04:24:21;101196.50;;;16.57;34.43
66396;BME280;53207;51.378;-1.342;2023-01-31T04:26:48;101202.21;;;16.56;34.42
66396;BME280;53207;51.378;-1.342;2023-01-31T04:29:15;101209.72;;;16.55;34.41
66396;BME280;53207;51.378;-1.342;2023-01-31T04:31:43;101209.27;;;16.77;34.46
66396;BME280;53207;51.378;-1.342;2023-01-31T04:34:10;101207.32;;;16.77;34.41
66396;BME280;53207;51.378;-1.342;2023-01-31T04:36:37;101211.55;;;16.42;34.48
66396;BME280;53207;51.378;-1.342;2023-01-31T04:39:05;101207.36;;;16.45;34.42
66396;BME280;53207;51.378;-1.342;2023-01-31T04:41:32;101200.99;;;16.43;34.44
66396;BME280;53207;51.378;-1.342;2023-01-31T04:43:59;101189.69;;;16.37;34.51
66396;BME280;53207;51.378;-1.342;2023-01-31T04:46:26;101185.05;;;16.60;34.54
66396;BME280;53207;51.378;-1.342;2023-01-31T04:48:54;101183.62;;;16.39;34.45
66396;BME280;53207;51.378;-1.342;2023-01-31T04:51:21;101179.99;;;16.53;34.55
66396;BME280;53207;51.378;-1.342;2023-01-31T04:53:48;101185.65;;;16.24;34.61
66396;BME280;53207;51.378;-1.342;2023-01-31T04:56:16;101187.51;;;16.31;34.48
66396;BME280;53207;51.378;-1.342;2023-01-31T04:58:43;101194.10;;;16.85;34.41
66396;BME280;53207;51.378;-1.342;2023-01-31T05:01:10;101194.06;;;16.67;34.62
66396;BME280;53207;51.378;-1.342;2023-01-31T05:03:38;101193.51;;;16.17;34.63
66396;BME280;53207;51.378;-1.342;2023-01-31T05:06:05;101197.50;;;16.40;34.65
66396;BME280;53207;51.378;-1.342;2023-01-31T05:08:32;101195.72;;;16.39;34.65
66396;BME280;53207;51.378;-1.342;2023-01-31T05:11:01;101197.73;;;16.06;34.70
66396;BME280;53207;51.378;-1.342;2023-01-31T05:13:29;101197.00;;;16.60;34.63
66396;BME280;53207;51.378;-1.342;2023-01-31T05:15:56;101203.05;;;16.06;34.68
66396;BME280;53207;51.378;-1.342;2023-01-31T05:18:24;101198.48;;;16.05;34.66
66396;BME280;53207;51.378;-1.342;2023-01-31T05:20:51;101199.64;;;16.04;34.66
66396;BME280;53207;51.378;-1.342;2023-01-31T05:23:18;101179.30;;;16.25;34.70
66396;BME280;53207;51.378;-1.342;2023-01-31T05:25:48;101174.51;;;16.05;34.61
66396;BME280;53207;51.378;-1.342;2023-01-31T05:28:16;101171.67;;;16.25;34.67
66396;BME280;53207;51.378;-1.342;2023-01-31T05:30:43;101175.36;;;16.24;34.68
66396;BME280;53207;51.378;-1.342;2023-01-31T05:33:10;101177.42;;;16.46;34.66
66396;BME280;53207;51.378;-1.342;2023-01-31T05:35:37;101175.83;;;16.23;34.63
66396;BME280;53207;51.378;-1.342;2023-01-31T05:38:04;101163.56;;;16.22;34.64
66396;BME280;53207;51.378;-1.342;2023-01-31T05:40:32;101155.28;;;15.94;34.64
66396;BME280;53207;51.378;-1.342;2023-01-31T05:42:59;101144.73;;;16.16;34.67
66396;BME280;53207;51.378;-1.342;2023-01-31T05:45:27;101138.06;;;16.18;34.63
66396;BME280;53207;51.378;-1.342;2023-01-31T05:47:55;101130.51;;;15.81;34.75
66396;BME280;53207;51.378;-1.342;2023-01-31T05:50:23;101134.11;;;16.42;34.58
66396;BME280;53207;51.378;-1.342;2023-01-31T05:52:52;101138.91;;;16.36;34.64
66396;BME280;53207;51.378;-1.342;2023-01-31T05:55:20;101131.98;;;16.34;34.64
66396;BME280;53207;51.378;-1.342;2023-01-31T05:57:47;101126.61;;;16.07;34.68
66396;BME280;53207;51.378;-1.342;2023-01-31T06:00:15;101131.23;;;16.26;34.70
66396;BME280;53207;51.378;-1.342;2023-01-31T06:02:43;101133.86;;;16.29;34.65
66396;BME280;53207;51.378;-1.342;2023-01-31T06:05:11;101126.62;;;16.29;34.62
66396;BME280;53207;51.378;-1.342;2023-01-31T06:07:38;101121.37;;;16.03;34.66
66396;BME280;53207;51.378;-1.342;2023-01-31T06:10:07;101116.02;;;16.24;34.66
66396;BME280;53207;51.378;-1.342;2023-01-31T06:12:35;101116.29;;;16.16;34.75
66396;BME280;53207;51.378;-1.342;2023-01-31T06:15:02;101123.33;;;16.16;34.74
66396;BME280;53207;51.378;-1.342;2023-01-31T06:17:30;101124.95;;;16.14;34.75
66396;BME280;53207;51.378;-1.342;2023-01-31T06:19:57;101123.49;;;15.95;34.67
66396;BME280;53207;51.378;-1.342;2023-01-31T06:22:25;101120.50;;;16.06;34.80
66396;BME280;53207;51.378;-1.342;2023-01-31T06:24:52;101119.17;;;16.12;34.70
66396;BME280;53207;51.378;-1.342;2023-01-31T06:27:19;101119.59;;;16.08;34.76
66396;BME280;53207;51.378;-1.342;2023-01-31T06:29:48;101120.77;;;16.10;34.70
66396;BME280;53207;51.378;-1.342;2023-01-31T06:32:15;101112.12;;;15.85;34.73
66396;BME280;53207;51.378;-1.342;2023-01-31T06:34:42;101113.84;;;16.06;34.76
66396;BME280;53207;51.378;-1.342;2023-01-31T06:37:10;101106.90;;;16.12;34.70
66396;BME280;53207;51.378;-1.342;2023-01-31T06:39:37;101103.84;;;15.92;34.74
66396;BME280;53207;51.378;-1.342;2023-01-31T06:42:04;101101.60;;;16.01;34.67
66396;BME280;53207;51.378;-1.342;2023-01-31T06:44:32;101104.03;;;16.23;34.50
66396;BME280;53207;51.378;-1.342;2023-01-31T06:46:59;101103.38;;;16.63;34.37
66396;BME280;53207;51.378;-1.342;2023-01-31T06:49:26;101096.08;;;16.84;34.31
66396;BME280;53207;51.378;-1.342;2023-01-31T06:51:54;101093.45;;;17.03;34.21
66396;BME280;53207;51.378;-1.342;2023-01-31T06:54:21;101086.11;;;17.19;34.11
66396;BME280;53207;51.378;-1.342;2023-01-31T06:56:48;101081.07;;;17.12;33.99
66396;BME280;53207;51.378;-1.342;2023-01-31T06:59:16;101078.03;;;17.21;34.00
66396;BME280;53207;51.378;-1.342;2023-01-31T07:01:43;101081.66;;;17.06;33.97
66396;BME280;53207;51.378;-1.342;2023-01-31T07:04:10;101074.00;;;17.15;33.98
66396;BME280;53207;51.378;-1.342;2023-01-31T07:06:38;101065.06;;;17.48;34.01
66396;BME280;53207;51.378;-1.342;2023-01-31T07:09:05;101067.50;;;17.35;34.06
66396;BME280;53207;51.378;-1.342;2023-01-31T07:11:32;101072.72;;;17.43;34.06
66396;BME280;53207;51.378;-1.342;2023-01-31T07:13:59;101067.19;;;17.52;34.01
66396;BME280;53207;51.378;-1.342;2023-01-31T07:16:27;101078.66;;;17.64;33.93
66396;BME280;53207;51.378;-1.342;2023-01-31T07:18:54;101077.13;;;17.71;33.88
66396;BME280;53207;51.378;-1.342;2023-01-31T07:21:23;101078.95;;;17.81;33.83
66396;BME280;53207;51.378;-1.342;2023-01-31T07:23:51;101076.24;;;17.89;33.77
66396;BME280;53207;51.378;-1.342;2023-01-31T07:26:18;101082.60;;;17.95;33.75
66396;BME280;53207;51.378;-1.342;2023-01-31T07:28:45;101071.46;;;18.07;33.64
66396;BME280;53207;51.378;-1.342;2023-01-31T07:31:13;101070.41;;;18.19;33.53
66396;BME280;53207;51.378;-1.342;2023-01-31T07:33:41;101068.48;;;18.23;33.53
66396;BME280;53207;51.378;-1.342;2023-01-31T07:36:12;101068.85;;;18.31;33.48
66396;BME280;53207;51.378;-1.342;2023-01-31T07:38:40;101070.75;;;18.36;33.45
66396;BME280;53207;51.378;-1.342;2023-01-31T07:41:09;101075.10;;;18.24;33.36
66396;BME280;53207;51.378;-1.342;2023-01-31T07:43:37;101081.28;;;18.29;33.33
66396;BME280;53207;51.378;-1.342;2023-01-31T07:46:06;101088.79;;;18.59;33.30
66396;BME280;53207;51.378;-1.342;2023-01-31T07:48:33;101099.67;;;18.17;33.22
66396;BME280;53207;51.378;-1.342;2023-01-31T07:51:01;101095.72;;;18.41;33.27
66396;BME280;53207;51.378;-1.342;2023-01-31T07:53:31;101096.87;;;18.20;33.25
66396;BME280;53207;51.378;-1.342;2023-01-31T07:56:05;101093.28;;;18.56;33.18
66396;BME280;53207;51.378;-1.342;2023-01-31T07:58:34;101096.35;;;18.36;33.11
66396;BME280;53207;51.378;-1.342;2023-01-31T08:01:01;101093.02;;;18.66;33.10
66396;BME280;53207;51.378;-1.342;2023-01-31T08:03:29;101091.38;;;18.39;33.15
66396;BME280;53207;51.378;-1.342;2023-01-31T08:05:56;101094.31;;;18.47;33.08
66396;BME280;53207;51.378;-1.342;2023-01-31T08:08:24;101095.49;;;18.82;33.04
66396;BME280;53207;51.378;-1.342;2023-01-31T08:10:51;101081.69;;;18.54;33.08
66396;BME280;53207;51.378;-1.342;2023-01-31T08:13:18;101072.18;;;18.59;33.06
66396;BME280;53207;51.378;-1.342;2023-01-31T08:15:45;101072.43;;;19.12;33.03
66396;BME280;53207;51.378;-1.342;2023-01-31T08:18:13;101061.93;;;18.95;33.03
66396;BME280;53207;51.378;-1.342;2023-01-31T08:20:40;101060.92;;;18.74;32.96
66396;BME280;53207;51.378;-1.342;2023-01-31T08:23:07;101058.35;;;18.80;32.96
66396;BME280;53207;51.378;-1.342;2023-01-31T08:25:35;101054.56;;;18.86;32.88
66396;BME280;53207;51.378;-1.342;2023-01-31T08:28:02;101046.56;;;18.89;32.89
66396;BME280;53207;51.378;-1.342;2023-01-31T08:30:29;101060.58;;;18.93;32.86
66396;BME280;53207;51.378;-1.342;2023-01-31T08:32:57;101059.27;;;18.96;32.84
66396;BME280;53207;51.378;-1.342;2023-01-31T08:35:25;101057.76;;;18.99;32.84
66396;BME280;53207;51.378;-1.342;2023-01-31T08:37:52;101055.19;;;19.07;32.77
66396;BME280;53207;51.378;-1.342;2023-01-31T08:40:19;101054.90;;;18.99;32.88
66396;BME280;53207;51.378;-1.342;2023-01-31T08:42:53;101057.90;;;19.00;32.86
66396;BME280;53207;51.378;-1.342;2023-01-31T08:45:21;101056.19;;;19.02;32.85
66396;BME280;53207;51.378;-1.342;2023-01-31T08:47:53;101063.53;;;19.00;32.87
66396;BME280;53207;51.378;-1.342;2023-01-31T08:50:20;101056.40;;;18.56;32.83
66396;BME280;53207;51.378;-1.342;2023-01-31T08:52:51;101062.18;;;18.99;32.83
66396;BME280;53207;51.378;-1.342;2023-01-31T08:55:19;101055.98;;;18.96;32.82
66396;BME280;53207;51.378;-1.342;2023-01-31T08:57:46;101050.42;;;18.97;32.78
66396;BME280;53207;51.378;-1.342;2023-01-31T09:00:15;101048.96;;;18.91;32.82
66396;BME280;53207;51.378;-1.342;2023-01-31T09:02:42;101049.75;;;18.91;32.78
66396;BME280;53207;51.378;-1.342;2023-01-31T09:05:10;101041.37;;;18.90;32.79
66396;BME280;53207;51.378;-1.342;2023-01-31T09:07:37;101038.92;;;18.86;32.85
66396;BME280;53207;51.378;-1.342;2023-01-31T09:10:05;101038.31;;;18.53;32.97
66396;BME280;53207;51.378;-1.342;2023-01-31T09:12:33;101037.15;;;18.92;33.06
66396;BME280;53207;51.378;-1.342;2023-01-31T09:15:00;101036.68;;;18.61;33.09
66396;BME280;53207;51.378;-1.342;2023-01-31T09:17:27;101038.48;;;18.54;33.17
66396;BME280;53207;51.378;-1.342;2023-01-31T09:19:55;101038.78;;;18.48;33.22
66396;BME280;53207;51.378;-1.342;2023-01-31T09:22:23;101039.07;;;18.36;33.32
66396;BME280;53207;51.378;-1.342;2023-01-31T09:24:50;101039.54;;;18.30;33.34
66396;BME280;53207;51.378;-1.342;2023-01-31T09:27:17;101037.66;;;18.46;33.43
66396;BME280;53207;51.378;-1.342;2023-01-31T09:29:44;101044.54;;;18.13;33.50
66396;BME280;53207;51.378;-1.342;2023-01-31T09:32:12;101046.45;;;18.61;33.49
66396;BME280;53207;51.378;-1.342;2023-01-31T09:34:39;101048.83;;;18.06;33.52
66396;BME280;53207;51.378;-1.342;2023-01-31T09:37:06;101054.11;;;18.04;33.53
66396;BME280;53207;51.378;-1.342;2023-01-31T09:39:34;101062.81;;;18.01;33.53
66396;BME280;53207;51.378;-1.342;2023-01-31T09:42:08;101070.18;;;18.02;33.51
66396;BME280;53207;51.378;-1.342;2023-01-31T09:44:43;101075.34;;;18.26;33.51
66396;BME280;53207;51.378;-1.342;2023-01-31T09:47:16;101084.33;;;17.98;33.52
66396;BME280;53207;51.378;-1.342;2023-01-31T09:49:50;101071.44;;;18.09;33.62
66396;BME280;53207;51.378;-1.342;2023-01-31T09:52:17;101077.72;;;18.06;33.64
66396;BME280;53207;51.378;-1.342;2023-01-31T09:54:44;101081.25;;;17.83;33.57
66396;BME280;53207;51.378;-1.342;2023-01-31T09:57:21;101097.64;;;17.80;33.59
66396;BME280;53207;51.378;-1.342;2023-01-31T09:59:58;101109.89;;;18.04;33.60
66396;BME280;53207;51.378;-1.342;2023-01-31T10:02:39;101115.17;;;17.74;33.61
66396;BME280;53207;51.378;-1.342;2023-01-31T10:05:18;101107.12;;;17.74;33.59
66396;BME280;53207;51.378;-1.342;2023-01-31T10:07:53;101107.91;;;17.67;33.62
66396;BME280;53207;51.378;-1.342;2023-01-31T10:10:31;101109.30;;;17.71;33.56
66396;BME280;53207;51.378;-1.342;2023-01-31T10:13:03;101104.02;;;17.73;33.52
66396;BME280;53207;51.378;-1.342;2023-01-31T10:15:37;101104.15;;;17.82;33.69
66396;BME280;53207;51.378;-1.342;2023-01-31T10:18:10;101099.40;;;17.55;33.68
66396;BME280;53207;51.378;-1.342;2023-01-31T10:20:46;101101.26;;;17.80;33.71
66396;BME280;53207;51.378;-1.342;2023-01-31T10:23:21;101097.99;;;17.88;33.61
66396;BME280;53207;51.378;-1.342;2023-01-31T10:25:55;101098.59;;;17.82;33.63
66396;BME280;53207;51.378;-1.342;2023-01-31T10:28:29;101093.81;;;17.84;33.60
66396;BME280;53207;51.378;-1.342;2023-01-31T10:31:02;101101.38;;;18.02;33.65
66396;BME280;53207;51.378;-1.342;2023-01-31T10:33:37;101097.36;;;17.78;33.65
66396;BME280;53207;51.378;-1.342;2023-01-31T10:36:12;101102.27;;;17.84;33.56
66396;BME280;53207;51.378;-1.342;2023-01-31T10:38:54;101105.64;;;17.92;33.73
66396;BME280;53207;51.378;-1.342;2023-01-31T10:41:33;101101.53;;;17.51;33.63
66396;BME280;53207;51.378;-1.342;2023-01-31T10:44:05;101098.96;;;17.85;33.53
66396;BME280;53207;51.378;-1.342;2023-01-31T10:46:33;101097.52;;;17.92;33.70
66396;BME280;53207;51.378;-1.342;2023-01-31T10:49:00;101090.66;;;17.76;33.61
66396;BME280;53207;51.378;-1.342;2023-01-31T10:51:38;101092.20;;;17.75;33.60
66396;BME280;53207;51.378;-1.342;2023-01-31T10:54:20;101090.04;;;18.00;33.56
66396;BME280;53207;51.378;-1.342;2023-01-31T10:56:51;101096.72;;;17.64;33.70
66396;BME280;53207;51.378;-1.342;2023-01-31T10:59:22;101101.57;;;17.68;33.67
66396;BME280;53207;51.378;-1.342;2023-01-31T11:01:51;101104.22;;;17.90;33.64
66396;BME280;53207;51.378;-1.342;2023-01-31T11:04:24;101104.32;;;17.67;33.63
66396;BME280;53207;51.378;-1.342;2023-01-31T11:06:52;101099.64;;;17.68;33.88
66396;BME280;53207;51.378;-1.342;2023-01-31T11:09:21;101090.99;;;17.52;33.79
66396;BME280;53207;51.378;-1.342;2023-01-31T11:11:54;101094.43;;;17.81;33.70
66396;BME280;53207;51.378;-1.342;2023-01-31T11:14:22;101100.55;;;17.75;33.76
66396;BME280;53207;51.378;-1.342;2023-01-31T11:16:57;101097.75;;;17.74;33.75
66396;BME280;53207;51.378;-1.342;2023-01-31T11:19:32;101091.05;;;17.14;33.85
66396;BME280;53207;51.378;-1.342;2023-01-31T11:22:01;101087.37;;;17.64;33.83
66396;BME280;53207;51.378;-1.342;2023-01-31T11:24:31;101090.41;;;17.36;33.88
66396;BME280;53207;51.378;-1.342;2023-01-31T11:27:01;101096.19;;;17.45;33.78
66396;BME280;53207;51.378;-1.342;2023-01-31T11:29:31;101096.17;;;17.60;33.85
66396;BME280;53207;51.378;-1.342;2023-01-31T11:32:03;101089.03;;;17.61;33.81
66396;BME280;53207;51.378;-1.342;2023-01-31T11:34:32;101087.94;;;17.34;33.86
66396;BME280;53207;51.378;-1.342;2023-01-31T11:37:05;101089.70;;;17.53;33.89
66396;BME280;53207;51.378;-1.342;2023-01-31T11:39:34;101087.50;;;17.26;33.95
66396;BME280;53207;51.378;-1.342;2023-01-31T11:42:06;101080.81;;;16.98;33.96
66396;BME280;53207;51.378;-1.342;2023-01-31T11:44:53;101075.73;;;17.45;33.97
66396;BME280;53207;51.378;-1.342;2023-01-31T11:47:24;101070.25;;;17.01;33.88
66396;BME280;53207;51.378;-1.342;2023-01-31T11:49:53;101065.74;;;17.46;33.92
66396;BME280;53207;51.378;-1.342;2023-01-31T11:52:26;101063.65;;;17.41;34.00
66396;BME280;53207;51.378;-1.342;2023-01-31T11:54:56;101064.41;;;17.19;33.97
66396;BME280;53207;51.378;-1.342;2023-01-31T11:57:28;101061.42;;;17.46;33.90
66396;BME280;53207;51.378;-1.342;2023-01-31T11:59:59;101052.22;;;17.40;33.96
66396;BME280;53207;51.378;-1.342;2023-01-31T12:02:32;101047.64;;;17.39;33.96
66396;BME280;53207;51.378;-1.342;2023-01-31T12:05:07;101049.67;;;17.41;33.92
66396;BME280;53207;51.378;-1.342;2023-01-31T12:07:42;101047.69;;;17.36;33.98
66396;BME280;53207;51.378;-1.342;2023-01-31T12:10:31;101058.02;;;17.42;33.91
66396;BME280;53207;51.378;-1.342;2023-01-31T12:13:01;101056.13;;;17.58;34.02
66396;BME280;53207;51.378;-1.342;2023-01-31T12:15:29;101052.38;;;17.27;34.05
66396;BME280;53207;51.378;-1.342;2023-01-31T12:17:59;101045.49;;;17.34;33.96
66396;BME280;53207;51.378;-1.342;2023-01-31T12:20:35;101045.07;;;17.29;34.02
66396;BME280;53207;51.378;-1.342;2023-01-31T12:23:14;101040.72;;;17.24;34.07
66396;BME280;53207;51.378;-1.342;2023-01-31T12:25:52;101039.37;;;17.26;34.05
66396;BME280;53207;51.378;-1.342;2023-01-31T12:28:33;101047.18;;;17.25;34.07
66396;BME280;53207;51.378;-1.342;2023-01-31T12:31:16;101047.73;;;17.21;34.10
66396;BME280;53207;51.378;-1.342;2023-01-31T12:33:59;101043.25;;;17.29;33.98
66396;BME280;53207;51.378;-1.342;2023-01-31T12:36:40;101040.69;;;17.24;34.05
66396;BME280;53207;51.378;-1.342;2023-01-31T12:39:25;101034.95;;;17.21;34.07
66396;BME280;53207;51.378;-1.342;2023-01-31T12:42:08;101032.14;;;17.15;34.14
66396;BME280;53207;51.378;-1.342;2023-01-31T12:44:42;101032.62;;;17.16;34.13
66396;BME280;53207;51.378;-1.342;2023-01-31T12:47:23;101032.67;;;17.14;34.14
66396;BME280;53207;51.378;-1.342;2023-01-31T12:50:03;101036.92;;;17.16;34.08
66396;BME280;53207;51.378;-1.342;2023-01-31T12:52:44;101043.75;;;17.16;34.08
66396;BME280;53207;51.378;-1.342;2023-01-31T12:55:20;101050.06;;;17.14;34.10
66396;BME280;53207;51.378;-1.342;2023-01-31T12:57:59;101052.76;;;17.16;34.07